sensor_id;sensor_type;location;lat;lon;timestamp;P1;durP1;ratioP1;P2;durP2;ratioP2
23181;SDS011;11759;51.282;6.642;2022-07-23T00:01:24;38.13;;;16.95;;
23181;SDS011;11759;51.282;6.642;2022-07-23T00:03:53;30.05;;;17.23;;
23181;SDS011;11759;51.282;6.642;2022-07-23T00:06:21;31.90;;;16.05;;
23181;SDS011;11759;51.282;6.642;2022-07-23T00:08:48;30.65;;;16.33;;
23181;SDS011;11759;51.282;6.642;2022-07-23T00:11:18;33.30;;;16.88;;
23181;SDS011;11759;51.282;6.642;2022-07-23T00:13:45;33.67;;;17.85;;
23181;SDS011;11759;51.282;6.642;2022-07-23T00:16:11;39.83;;;17.42;;
23181;SDS011;11759;51.282;6.642;2022-07-23T00:18:38;36.17;;;17.90;;
23181;SDS011;11759;51.282;6.642;2022-07-23T00:21:05;44.45;;;17.98;;
23181;SDS011;11759;51.282;6.642;2022-07-23T00:23:32;35.38;;;17.83;;
23181;SDS011;11759;51.282;6.642;2022-07-23T00:25:59;32.60;;;17.13;;
23181;SDS011;11759;51.282;6.642;2022-07-23T00:28:25;35.85;;;17.73;;
23181;SDS011;11759;51.282;6.642;2022-07-23T00:30:52;37.45;;;18.02;;
23181;SDS011;11759;51.282;6.642;2022-07-23T00:33:19;33.75;;;19.27;;
23181;SDS011;11759;51.282;6.642;2022-07-23T00:35:46;39.60;;;19.95;;
23181;SDS011;11759;51.282;6.642;2022-07-23T00:38:13;36.83;;;18.95;;
23181;SDS011;11759;51.282;6.642;2022-07-23T00:40:39;34.95;;;18.85;;
23181;SDS011;11759;51.282;6.642;2022-07-23T00:43:07;32.63;;;18.75;;
23181;SDS011;11759;51.282;6.642;2022-07-23T00:45:34;42.17;;;20.13;;
23181;SDS011;11759;51.282;6.642;2022-07-23T00:48:02;42.45;;;19.35;;
23181;SDS011;11759;51.282;6.642;2022-07-23T00:50:29;34.55;;;19.92;;
23181;SDS011;11759;51.282;6.642;2022-07-23T00:52:56;41.55;;;19.52;;
23181;SDS011;11759;51.282;6.642;2022-07-23T00:55:23;38.45;;;19.98;;
23181;SDS011;11759;51.282;6.642;2022-07-23T00:57:53;38.08;;;19.70;;
23181;SDS011;11759;51.282;6.642;2022-07-23T01:00:20;39.10;;;20.52;;
23181;SDS011;11759;51.282;6.642;2022-07-23T01:02:47;37.03;;;19.88;;
23181;SDS011;11759;51.282;6.642;2022-07-23T01:05:14;42.35;;;20.13;;
23181;SDS011;11759;51.282;6.642;2022-07-23T01:07:42;35.50;;;18.58;;
23181;SDS011;11759;51.282;6.642;2022-07-23T01:10:09;38.83;;;20.60;;
23181;SDS011;11759;51.282;6.642;2022-07-23T01:12:55;41.42;;;19.02;;
23181;SDS011;11759;51.282;6.642;2022-07-23T01:15:22;46.05;;;20.05;;
23181;SDS011;11759;51.282;6.642;2022-07-23T01:17:49;46.88;;;20.58;;
23181;SDS011;11759;51.282;6.642;2022-07-23T01:20:17;40.40;;;21.38;;
23181;SDS011;11759;51.282;6.642;2022-07-23T01:22:44;43.90;;;20.60;;
23181;SDS011;11759;51.282;6.642;2022-07-23T01:25:11;42.45;;;21.45;;
23181;SDS011;11759;51.282;6.642;2022-07-23T01:27:45;44.90;;;20.27;;
23181;SDS011;11759;51.282;6.642;2022-07-23T01:30:12;44.50;;;19.88;;
23181;SDS011;11759;51.282;6.642;2022-07-23T01:32:39;43.78;;;21.00;;
23181;SDS011;11759;51.282;6.642;2022-07-23T01:35:07;39.20;;;19.92;;
23181;SDS011;11759;51.282;6.642;2022-07-23T01:37:34;44.03;;;22.35;;
23181;SDS011;11759;51.282;6.642;2022-07-23T01:40:02;53.58;;;22.42;;
23181;SDS011;11759;51.282;6.642;2022-07-23T01:42:31;45.38;;;22.80;;
23181;SDS011;11759;51.282;6.642;2022-07-23T01:45:02;42.80;;;22.38;;
23181;SDS011;11759;51.282;6.642;2022-07-23T01:47:30;47.15;;;22.48;;
23181;SDS011;11759;51.282;6.642;2022-07-23T01:49:57;56.17;;;24.33;;
23181;SDS011;11759;51.282;6.642;2022-07-23T01:52:26;53.65;;;23.55;;
23181;SDS011;11759;51.282;6.642;2022-07-23T01:54:53;48.75;;;24.15;;
23181;SDS011;11759;51.282;6.642;2022-07-23T01:57:20;52.38;;;23.77;;
23181;SDS011;11759;51.282;6.642;2022-07-23T01:59:47;62.38;;;25.35;;
23181;SDS011;11759;51.282;6.642;2022-07-23T02:02:17;58.78;;;26.08;;
23181;SDS011;11759;51.282;6.642;2022-07-23T02:04:44;54.80;;;26.88;;
23181;SDS011;11759;51.282;6.642;2022-07-23T02:07:11;65.38;;;26.33;;
23181;SDS011;11759;51.282;6.642;2022-07-23T02:09:38;58.50;;;26.17;;
23181;SDS011;11759;51.282;6.642;2022-07-23T02:12:05;67.40;;;27.30;;
23181;SDS011;11759;51.282;6.642;2022-07-23T02:14:32;58.85;;;27.35;;
23181;SDS011;11759;51.282;6.642;2022-07-23T02:16:59;64.47;;;27.70;;
23181;SDS011;11759;51.282;6.642;2022-07-23T02:19:25;60.15;;;26.85;;
23181;SDS011;11759;51.282;6.642;2022-07-23T02:21:52;60.85;;;27.75;;
23181;SDS011;11759;51.282;6.642;2022-07-23T02:24:21;66.30;;;27.05;;
23181;SDS011;11759;51.282;6.642;2022-07-23T02:26:48;62.78;;;28.15;;
23181;SDS011;11759;51.282;6.642;2022-07-23T02:29:15;69.03;;;27.20;;
23181;SDS011;11759;51.282;6.642;2022-07-23T02:31:42;71.82;;;28.33;;
23181;SDS011;11759;51.282;6.642;2022-07-23T02:34:09;72.30;;;28.63;;
23181;SDS011;11759;51.282;6.642;2022-07-23T02:36:38;70.32;;;30.05;;
23181;SDS011;11759;51.282;6.642;2022-07-23T02:39:07;75.57;;;29.77;;
23181;SDS011;11759;51.282;6.642;2022-07-23T02:41:35;77.75;;;31.70;;
23181;SDS011;11759;51.282;6.642;2022-07-23T02:44:02;69.63;;;29.80;;
23181;SDS011;11759;51.282;6.642;2022-07-23T02:46:30;73.60;;;28.48;;
23181;SDS011;11759;51.282;6.642;2022-07-23T02:48:58;76.53;;;31.42;;
23181;SDS011;11759;51.282;6.642;2022-07-23T02:51:25;80.18;;;31.92;;
23181;SDS011;11759;51.282;6.642;2022-07-23T02:53:57;81.80;;;30.23;;
23181;SDS011;11759;51.282;6.642;2022-07-23T02:56:24;89.72;;;31.90;;
23181;SDS011;11759;51.282;6.642;2022-07-23T02:58:51;79.90;;;30.83;;
23181;SDS011;11759;51.282;6.642;2022-07-23T03:01:18;86.88;;;29.88;;
23181;SDS011;11759;51.282;6.642;2022-07-23T03:03:46;87.80;;;31.80;;
23181;SDS011;11759;51.282;6.642;2022-07-23T03:06:13;89.85;;;33.03;;
23181;SDS011;11759;51.282;6.642;2022-07-23T03:08:40;82.55;;;31.77;;
23181;SDS011;11759;51.282;6.642;2022-07-23T03:11:07;81.65;;;31.70;;
23181;SDS011;11759;51.282;6.642;2022-07-23T03:13:38;88.93;;;28.98;;
23181;SDS011;11759;51.282;6.642;2022-07-23T03:16:06;87.57;;;29.35;;
23181;SDS011;11759;51.282;6.642;2022-07-23T03:18:35;87.90;;;30.33;;
23181;SDS011;11759;51.282;6.642;2022-07-23T03:23:33;79.55;;;26.67;;
23181;SDS011;11759;51.282;6.642;2022-07-23T03:26:01;84.85;;;29.38;;
23181;SDS011;11759;51.282;6.642;2022-07-23T03:28:28;72.32;;;25.80;;
23181;SDS011;11759;51.282;6.642;2022-07-23T03:30:55;76.72;;;25.55;;
23181;SDS011;11759;51.282;6.642;2022-07-23T03:33:22;73.20;;;26.15;;
23181;SDS011;11759;51.282;6.642;2022-07-23T03:35:49;70.57;;;24.88;;
23181;SDS011;11759;51.282;6.642;2022-07-23T03:38:21;60.85;;;25.63;;
23181;SDS011;11759;51.282;6.642;2022-07-23T03:40:49;55.17;;;24.40;;
23181;SDS011;11759;51.282;6.642;2022-07-23T03:43:16;80.60;;;26.88;;
23181;SDS011;11759;51.282;6.642;2022-07-23T03:45:44;96.40;;;26.45;;
23181;SDS011;11759;51.282;6.642;2022-07-23T03:48:10;80.78;;;26.52;;
23181;SDS011;11759;51.282;6.642;2022-07-23T03:50:37;106.72;;;26.88;;
23181;SDS011;11759;51.282;6.642;2022-07-23T03:53:04;57.95;;;24.63;;
23181;SDS011;11759;51.282;6.642;2022-07-23T03:55:33;80.50;;;26.23;;
23181;SDS011;11759;51.282;6.642;2022-07-23T03:58:00;76.05;;;28.05;;
23181;SDS011;11759;51.282;6.642;2022-07-23T04:00:27;75.15;;;24.77;;
23181;SDS011;11759;51.282;6.642;2022-07-23T04:02:54;68.97;;;24.73;;
23181;SDS011;11759;51.282;6.642;2022-07-23T04:05:21;68.65;;;25.25;;
23181;SDS011;11759;51.282;6.642;2022-07-23T04:07:53;61.55;;;24.08;;
23181;SDS011;11759;51.282;6.642;2022-07-23T04:10:20;65.07;;;22.73;;
23181;SDS011;11759;51.282;6.642;2022-07-23T04:12:47;68.07;;;23.05;;
23181;SDS011;11759;51.282;6.642;2022-07-23T04:15:14;72.03;;;22.83;;
23181;SDS011;11759;51.282;6.642;2022-07-23T04:17:41;71.68;;;23.30;;
23181;SDS011;11759;51.282;6.642;2022-07-23T04:20:10;71.13;;;23.92;;
23181;SDS011;11759;51.282;6.642;2022-07-23T04:22:45;90.85;;;24.70;;
23181;SDS011;11759;51.282;6.642;2022-07-23T04:25:13;70.55;;;24.80;;
23181;SDS011;11759;51.282;6.642;2022-07-23T04:27:43;79.15;;;24.70;;
23181;SDS011;11759;51.282;6.642;2022-07-23T04:30:11;57.53;;;22.75;;
23181;SDS011;11759;51.282;6.642;2022-07-23T04:32:37;58.08;;;22.63;;
23181;SDS011;11759;51.282;6.642;2022-07-23T04:35:12;64.65;;;23.67;;
23181;SDS011;11759;51.282;6.642;2022-07-23T04:37:39;72.05;;;26.60;;
23181;SDS011;11759;51.282;6.642;2022-07-23T04:40:06;69.78;;;26.55;;
23181;SDS011;11759;51.282;6.642;2022-07-23T04:42:35;67.18;;;27.02;;
23181;SDS011;11759;51.282;6.642;2022-07-23T04:45:02;73.25;;;27.45;;
23181;SDS011;11759;51.282;6.642;2022-07-23T04:47:30;73.47;;;27.88;;
23181;SDS011;11759;51.282;6.642;2022-07-23T04:49:57;68.22;;;27.13;;
23181;SDS011;11759;51.282;6.642;2022-07-23T04:52:25;71.72;;;25.73;;
23181;SDS011;11759;51.282;6.642;2022-07-23T04:54:52;77.38;;;27.00;;
23181;SDS011;11759;51.282;6.642;2022-07-23T04:57:18;76.55;;;27.67;;
23181;SDS011;11759;51.282;6.642;2022-07-23T04:59:45;76.32;;;28.77;;
23181;SDS011;11759;51.282;6.642;2022-07-23T05:02:14;70.30;;;28.35;;
23181;SDS011;11759;51.282;6.642;2022-07-23T05:04:42;75.10;;;28.65;;
23181;SDS011;11759;51.282;6.642;2022-07-23T05:07:09;79.40;;;29.50;;
23181;SDS011;11759;51.282;6.642;2022-07-23T05:09:36;73.90;;;28.38;;
23181;SDS011;11759;51.282;6.642;2022-07-23T05:12:04;71.72;;;29.75;;
23181;SDS011;11759;51.282;6.642;2022-07-23T05:14:33;68.18;;;29.33;;
23181;SDS011;11759;51.282;6.642;2022-07-23T05:17:00;73.13;;;29.27;;
23181;SDS011;11759;51.282;6.642;2022-07-23T05:19:27;70.85;;;28.92;;
23181;SDS011;11759;51.282;6.642;2022-07-23T05:21:54;74.50;;;29.08;;
23181;SDS011;11759;51.282;6.642;2022-07-23T05:24:21;76.13;;;29.73;;
23181;SDS011;11759;51.282;6.642;2022-07-23T05:26:49;67.65;;;29.95;;
23181;SDS011;11759;51.282;6.642;2022-07-23T05:29:18;68.45;;;30.42;;
23181;SDS011;11759;51.282;6.642;2022-07-23T05:31:45;69.32;;;29.67;;
23181;SDS011;11759;51.282;6.642;2022-07-23T05:34:13;70.75;;;27.98;;
23181;SDS011;11759;51.282;6.642;2022-07-23T05:36:44;73.28;;;28.48;;
23181;SDS011;11759;51.282;6.642;2022-07-23T05:39:11;65.18;;;30.60;;
23181;SDS011;11759;51.282;6.642;2022-07-23T05:41:38;63.10;;;30.73;;
23181;SDS011;11759;51.282;6.642;2022-07-23T05:44:05;63.63;;;28.95;;
23181;SDS011;11759;51.282;6.642;2022-07-23T05:46:38;66.28;;;29.45;;
23181;SDS011;11759;51.282;6.642;2022-07-23T05:49:07;60.58;;;29.00;;
23181;SDS011;11759;51.282;6.642;2022-07-23T05:51:50;58.22;;;27.83;;
23181;SDS011;11759;51.282;6.642;2022-07-23T05:54:26;54.72;;;28.77;;
23181;SDS011;11759;51.282;6.642;2022-07-23T05:56:53;66.15;;;28.38;;
23181;SDS011;11759;51.282;6.642;2022-07-23T05:59:20;61.80;;;29.13;;
23181;SDS011;11759;51.282;6.642;2022-07-23T06:01:47;58.17;;;28.00;;
23181;SDS011;11759;51.282;6.642;2022-07-23T06:04:15;55.72;;;29.15;;
23181;SDS011;11759;51.282;6.642;2022-07-23T06:06:52;60.92;;;28.90;;
23181;SDS011;11759;51.282;6.642;2022-07-23T06:09:20;56.08;;;29.60;;
23181;SDS011;11759;51.282;6.642;2022-07-23T06:11:47;59.53;;;29.70;;
23181;SDS011;11759;51.282;6.642;2022-07-23T06:14:15;65.60;;;30.17;;
23181;SDS011;11759;51.282;6.642;2022-07-23T06:16:54;62.50;;;29.55;;
23181;SDS011;11759;51.282;6.642;2022-07-23T06:19:22;64.15;;;31.35;;
23181;SDS011;11759;51.282;6.642;2022-07-23T06:21:49;61.28;;;29.58;;
23181;SDS011;11759;51.282;6.642;2022-07-23T06:24:16;58.75;;;29.35;;
23181;SDS011;11759;51.282;6.642;2022-07-23T06:26:43;64.22;;;27.92;;
23181;SDS011;11759;51.282;6.642;2022-07-23T06:29:11;52.80;;;29.02;;
23181;SDS011;11759;51.282;6.642;2022-07-23T06:31:37;50.92;;;26.70;;
23181;SDS011;11759;51.282;6.642;2022-07-23T06:34:04;54.38;;;28.98;;
23181;SDS011;11759;51.282;6.642;2022-07-23T06:36:34;68.35;;;31.27;;
23181;SDS011;11759;51.282;6.642;2022-07-23T06:39:01;69.32;;;32.47;;
23181;SDS011;11759;51.282;6.642;2022-07-23T06:41:29;70.05;;;31.42;;
23181;SDS011;11759;51.282;6.642;2022-07-23T06:43:56;54.47;;;30.10;;
23181;SDS011;11759;51.282;6.642;2022-07-23T06:46:24;67.90;;;31.38;;
23181;SDS011;11759;51.282;6.642;2022-07-23T06:48:51;55.17;;;28.23;;
23181;SDS011;11759;51.282;6.642;2022-07-23T06:51:18;56.45;;;30.70;;
23181;SDS011;11759;51.282;6.642;2022-07-23T06:53:45;55.95;;;27.75;;
23181;SDS011;11759;51.282;6.642;2022-07-23T06:56:12;50.60;;;28.48;;
23181;SDS011;11759;51.282;6.642;2022-07-23T06:58:39;62.17;;;27.05;;
23181;SDS011;11759;51.282;6.642;2022-07-23T07:01:06;55.42;;;27.55;;
23181;SDS011;11759;51.282;6.642;2022-07-23T07:03:34;49.50;;;27.75;;
23181;SDS011;11759;51.282;6.642;2022-07-23T07:06:00;57.83;;;28.50;;
23181;SDS011;11759;51.282;6.642;2022-07-23T07:08:28;55.13;;;27.00;;
23181;SDS011;11759;51.282;6.642;2022-07-23T07:10:55;53.63;;;26.48;;
23181;SDS011;11759;51.282;6.642;2022-07-23T07:13:21;51.85;;;26.65;;
23181;SDS011;11759;51.282;6.642;2022-07-23T07:15:49;60.40;;;27.35;;
23181;SDS011;11759;51.282;6.642;2022-07-23T07:18:16;46.65;;;23.92;;
23181;SDS011;11759;51.282;6.642;2022-07-23T07:20:43;47.17;;;25.45;;
23181;SDS011;11759;51.282;6.642;2022-07-23T07:23:09;52.50;;;25.67;;
23181;SDS011;11759;51.282;6.642;2022-07-23T07:25:37;53.97;;;27.55;;
23181;SDS011;11759;51.282;6.642;2022-07-23T07:28:06;48.72;;;25.63;;
23181;SDS011;11759;51.282;6.642;2022-07-23T07:30:33;45.05;;;23.58;;
23181;SDS011;11759;51.282;6.642;2022-07-23T07:33:00;52.47;;;24.30;;
23181;SDS011;11759;51.282;6.642;2022-07-23T07:35:27;42.65;;;23.27;;
23181;SDS011;11759;51.282;6.642;2022-07-23T07:37:58;42.85;;;22.80;;
23181;SDS011;11759;51.282;6.642;2022-07-23T07:40:26;44.50;;;22.13;;
23181;SDS011;11759;51.282;6.642;2022-07-23T07:43:01;40.45;;;18.38;;
23181;SDS011;11759;51.282;6.642;2022-07-23T07:45:30;32.28;;;17.45;;
23181;SDS011;11759;51.282;6.642;2022-07-23T07:47:59;32.53;;;15.20;;
23181;SDS011;11759;51.282;6.642;2022-07-23T07:50:26;34.67;;;15.23;;
23181;SDS011;11759;51.282;6.642;2022-07-23T07:52:53;29.85;;;16.17;;
23181;SDS011;11759;51.282;6.642;2022-07-23T07:55:20;28.27;;;16.90;;
23181;SDS011;11759;51.282;6.642;2022-07-23T07:57:47;26.65;;;15.73;;
23181;SDS011;11759;51.282;6.642;2022-07-23T08:00:15;23.42;;;14.07;;
23181;SDS011;11759;51.282;6.642;2022-07-23T08:02:46;23.38;;;12.80;;
23181;SDS011;11759;51.282;6.642;2022-07-23T08:05:23;22.77;;;11.43;;
23181;SDS011;11759;51.282;6.642;2022-07-23T08:07:56;23.73;;;13.05;;
23181;SDS011;11759;51.282;6.642;2022-07-23T08:10:24;17.25;;;8.90;;
23181;SDS011;11759;51.282;6.642;2022-07-23T08:12:54;14.05;;;8.77;;
23181;SDS011;11759;51.282;6.642;2022-07-23T08:15:23;17.83;;;7.68;;
23181;SDS011;11759;51.282;6.642;2022-07-23T08:17:51;15.10;;;9.13;;
23181;SDS011;11759;51.282;6.642;2022-07-23T08:20:19;19.45;;;8.98;;
23181;SDS011;11759;51.282;6.642;2022-07-23T08:22:57;15.90;;;9.00;;
23181;SDS011;11759;51.282;6.642;2022-07-23T08:25:28;17.92;;;7.68;;
23181;SDS011;11759;51.282;6.642;2022-07-23T08:27:59;15.40;;;7.93;;
23181;SDS011;11759;51.282;6.642;2022-07-23T08:30:27;18.38;;;7.28;;
23181;SDS011;11759;51.282;6.642;2022-07-23T08:32:58;14.07;;;6.13;;
23181;SDS011;11759;51.282;6.642;2022-07-23T08:35:38;10.57;;;6.00;;
23181;SDS011;11759;51.282;6.642;2022-07-23T08:38:15;13.23;;;5.78;;
23181;SDS011;11759;51.282;6.642;2022-07-23T08:40:44;11.25;;;5.60;;
23181;SDS011;11759;51.282;6.642;2022-07-23T08:43:13;11.05;;;6.97;;
23181;SDS011;11759;51.282;6.642;2022-07-23T08:45:45;12.95;;;7.80;;
23181;SDS011;11759;51.282;6.642;2022-07-23T08:48:14;14.18;;;6.22;;
23181;SDS011;11759;51.282;6.642;2022-07-23T08:50:51;9.13;;;5.50;;
23181;SDS011;11759;51.282;6.642;2022-07-23T08:53:24;11.07;;;6.18;;
23181;SDS011;11759;51.282;6.642;2022-07-23T08:55:52;10.23;;;5.90;;
23181;SDS011;11759;51.282;6.642;2022-07-23T08:58:25;8.15;;;5.18;;
23181;SDS011;11759;51.282;6.642;2022-07-23T09:00:54;13.13;;;5.07;;
23181;SDS011;11759;51.282;6.642;2022-07-23T09:03:24;10.10;;;4.47;;
23181;SDS011;11759;51.282;6.642;2022-07-23T09:05:52;9.38;;;5.32;;
23181;SDS011;11759;51.282;6.642;2022-07-23T09:08:23;7.10;;;4.55;;
23181;SDS011;11759;51.282;6.642;2022-07-23T09:11:00;9.45;;;3.90;;
23181;SDS011;11759;51.282;6.642;2022-07-23T09:15:59;9.43;;;5.68;;
23181;SDS011;11759;51.282;6.642;2022-07-23T09:18:35;9.77;;;5.30;;
23181;SDS011;11759;51.282;6.642;2022-07-23T09:21:10;8.88;;;4.70;;
23181;SDS011;11759;51.282;6.642;2022-07-23T09:23:49;8.05;;;4.68;;
23181;SDS011;11759;51.282;6.642;2022-07-23T09:28:59;10.38;;;4.55;;
23181;SDS011;11759;51.282;6.642;2022-07-23T09:31:32;9.35;;;5.50;;
23181;SDS011;11759;51.282;6.642;2022-07-23T09:34:10;9.65;;;5.18;;
23181;SDS011;11759;51.282;6.642;2022-07-23T09:36:41;9.05;;;4.75;;
23181;SDS011;11759;51.282;6.642;2022-07-23T09:39:09;10.85;;;5.20;;
23181;SDS011;11759;51.282;6.642;2022-07-23T09:41:37;10.80;;;5.45;;
23181;SDS011;11759;51.282;6.642;2022-07-23T09:44:06;7.63;;;4.88;;
23181;SDS011;11759;51.282;6.642;2022-07-23T09:46:35;8.48;;;4.30;;
23181;SDS011;11759;51.282;6.642;2022-07-23T09:49:10;7.43;;;4.57;;
23181;SDS011;11759;51.282;6.642;2022-07-23T09:51:55;8.35;;;4.43;;
23181;SDS011;11759;51.282;6.642;2022-07-23T09:57:04;5.65;;;3.17;;
23181;SDS011;11759;51.282;6.642;2022-07-23T09:59:35;9.55;;;3.75;;
23181;SDS011;11759;51.282;6.642;2022-07-23T10:02:04;7.18;;;4.10;;
23181;SDS011;11759;51.282;6.642;2022-07-23T10:04:42;8.55;;;3.30;;
23181;SDS011;11759;51.282;6.642;2022-07-23T10:07:21;6.25;;;3.83;;
23181;SDS011;11759;51.282;6.642;2022-07-23T10:10:08;9.35;;;3.97;;
23181;SDS011;11759;51.282;6.642;2022-07-23T10:12:45;6.65;;;3.95;;
23181;SDS011;11759;51.282;6.642;2022-07-23T10:15:14;12.63;;;3.55;;
23181;SDS011;11759;51.282;6.642;2022-07-23T10:17:40;5.85;;;4.07;;
23181;SDS011;11759;51.282;6.642;2022-07-23T10:20:07;6.25;;;3.50;;
23181;SDS011;11759;51.282;6.642;2022-07-23T10:22:37;6.20;;;3.45;;
23181;SDS011;11759;51.282;6.642;2022-07-23T10:25:24;6.45;;;3.42;;
23181;SDS011;11759;51.282;6.642;2022-07-23T10:31:02;6.97;;;3.40;;
23181;SDS011;11759;51.282;6.642;2022-07-23T10:33:41;5.22;;;3.50;;
23181;SDS011;11759;51.282;6.642;2022-07-23T10:42:14;8.63;;;3.42;;
23181;SDS011;11759;51.282;6.642;2022-07-23T10:44:47;7.13;;;2.80;;
23181;SDS011;11759;51.282;6.642;2022-07-23T10:47:29;4.22;;;2.60;;
23181;SDS011;11759;51.282;6.642;2022-07-23T10:50:19;7.53;;;2.50;;
23181;SDS011;11759;51.282;6.642;2022-07-23T10:55:48;4.63;;;2.20;;
23181;SDS011;11759;51.282;6.642;2022-07-23T10:58:17;4.75;;;2.45;;
23181;SDS011;11759;51.282;6.642;2022-07-23T11:00:47;3.50;;;2.20;;
23181;SDS011;11759;51.282;6.642;2022-07-23T11:03:28;5.38;;;2.47;;
23181;SDS011;11759;51.282;6.642;2022-07-23T11:05:59;6.30;;;2.53;;
23181;SDS011;11759;51.282;6.642;2022-07-23T11:08:26;5.97;;;2.28;;
23181;SDS011;11759;51.282;6.642;2022-07-23T11:10:54;3.47;;;2.38;;
23181;SDS011;11759;51.282;6.642;2022-07-23T11:32:00;5.88;;;2.40;;
23181;SDS011;11759;51.282;6.642;2022-07-23T11:37:03;3.03;;;1.50;;
23181;SDS011;11759;51.282;6.642;2022-07-23T11:39:30;2.88;;;1.60;;
23181;SDS011;11759;51.282;6.642;2022-07-23T11:41:58;2.20;;;1.35;;
23181;SDS011;11759;51.282;6.642;2022-07-23T11:44:25;3.45;;;1.60;;
23181;SDS011;11759;51.282;6.642;2022-07-23T11:49:26;3.20;;;1.60;;
23181;SDS011;11759;51.282;6.642;2022-07-23T11:54:33;3.65;;;1.70;;
23181;SDS011;11759;51.282;6.642;2022-07-23T11:57:05;2.50;;;1.58;;
23181;SDS011;11759;51.282;6.642;2022-07-23T11:59:32;3.67;;;1.83;;
23181;SDS011;11759;51.282;6.642;2022-07-23T12:02:02;2.25;;;1.52;;
23181;SDS011;11759;51.282;6.642;2022-07-23T12:04:38;4.10;;;2.05;;
23181;SDS011;11759;51.282;6.642;2022-07-23T12:12:47;2.65;;;1.70;;
23181;SDS011;11759;51.282;6.642;2022-07-23T12:15:17;3.75;;;2.00;;
23181;SDS011;11759;51.282;6.642;2022-07-23T12:17:55;2.33;;;1.50;;
23181;SDS011;11759;51.282;6.642;2022-07-23T12:20:25;3.72;;;1.80;;
23181;SDS011;11759;51.282;6.642;2022-07-23T12:22:56;4.05;;;2.15;;
23181;SDS011;11759;51.282;6.642;2022-07-23T12:25:27;3.83;;;2.38;;
23181;SDS011;11759;51.282;6.642;2022-07-23T12:28:02;3.10;;;1.95;;
23181;SDS011;11759;51.282;6.642;2022-07-23T12:30:32;3.58;;;2.10;;
23181;SDS011;11759;51.282;6.642;2022-07-23T12:33:00;5.97;;;2.47;;
23181;SDS011;11759;51.282;6.642;2022-07-23T12:35:35;3.90;;;1.90;;
23181;SDS011;11759;51.282;6.642;2022-07-23T12:40:41;5.85;;;2.38;;
23181;SDS011;11759;51.282;6.642;2022-07-23T12:43:18;4.30;;;2.15;;
23181;SDS011;11759;51.282;6.642;2022-07-23T12:48:32;2.80;;;1.58;;
23181;SDS011;11759;51.282;6.642;2022-07-23T12:51:47;4.47;;;2.55;;
23181;SDS011;11759;51.282;6.642;2022-07-23T12:54:06;3.97;;;2.10;;
23181;SDS011;11759;51.282;6.642;2022-07-23T12:56:38;3.17;;;1.92;;
23181;SDS011;11759;51.282;6.642;2022-07-23T12:59:14;5.18;;;2.22;;
23181;SDS011;11759;51.282;6.642;2022-07-23T13:01:45;5.90;;;2.20;;
23181;SDS011;11759;51.282;6.642;2022-07-23T13:04:21;4.60;;;2.20;;
23181;SDS011;11759;51.282;6.642;2022-07-23T13:06:49;6.05;;;2.80;;
23181;SDS011;11759;51.282;6.642;2022-07-23T13:09:18;4.13;;;2.13;;
23181;SDS011;11759;51.282;6.642;2022-07-23T13:11:48;2.45;;;1.80;;
23181;SDS011;11759;51.282;6.642;2022-07-23T13:14:15;2.65;;;1.90;;
23181;SDS011;11759;51.282;6.642;2022-07-23T13:16:46;4.07;;;2.03;;
23181;SDS011;11759;51.282;6.642;2022-07-23T13:19:14;5.15;;;2.25;;
23181;SDS011;11759;51.282;6.642;2022-07-23T13:21:44;3.05;;;2.03;;
23181;SDS011;11759;51.282;6.642;2022-07-23T13:24:11;3.58;;;2.30;;
23181;SDS011;11759;51.282;6.642;2022-07-23T13:26:39;4.35;;;1.80;;
23181;SDS011;11759;51.282;6.642;2022-07-23T13:29:06;3.53;;;1.80;;
23181;SDS011;11759;51.282;6.642;2022-07-23T13:31:35;4.35;;;1.88;;
23181;SDS011;11759;51.282;6.642;2022-07-23T13:34:04;2.67;;;1.80;;
23181;SDS011;11759;51.282;6.642;2022-07-23T13:36:31;5.65;;;2.53;;
23181;SDS011;11759;51.282;6.642;2022-07-23T13:38:57;3.20;;;2.28;;
23181;SDS011;11759;51.282;6.642;2022-07-23T13:41:25;4.35;;;2.00;;
23181;SDS011;11759;51.282;6.642;2022-07-23T13:43:51;2.53;;;2.22;;
23181;SDS011;11759;51.282;6.642;2022-07-23T13:46:18;5.50;;;2.45;;
23181;SDS011;11759;51.282;6.642;2022-07-23T13:48:46;5.15;;;1.90;;
23181;SDS011;11759;51.282;6.642;2022-07-23T13:51:13;3.90;;;1.85;;
23181;SDS011;11759;51.282;6.642;2022-07-23T13:53:40;3.33;;;1.88;;
23181;SDS011;11759;51.282;6.642;2022-07-23T13:56:06;4.10;;;2.05;;
23181;SDS011;11759;51.282;6.642;2022-07-23T13:58:33;3.85;;;1.88;;
23181;SDS011;11759;51.282;6.642;2022-07-23T14:01:00;5.57;;;2.17;;
23181;SDS011;11759;51.282;6.642;2022-07-23T14:03:27;4.68;;;2.05;;
23181;SDS011;11759;51.282;6.642;2022-07-23T14:05:54;4.50;;;2.00;;
23181;SDS011;11759;51.282;6.642;2022-07-23T14:08:22;5.32;;;2.55;;
23181;SDS011;11759;51.282;6.642;2022-07-23T14:10:48;3.65;;;2.03;;
23181;SDS011;11759;51.282;6.642;2022-07-23T14:13:15;3.40;;;1.92;;
23181;SDS011;11759;51.282;6.642;2022-07-23T14:15:42;3.05;;;2.00;;
23181;SDS011;11759;51.282;6.642;2022-07-23T14:18:08;3.92;;;2.08;;
23181;SDS011;11759;51.282;6.642;2022-07-23T14:20:35;4.53;;;2.33;;
23181;SDS011;11759;51.282;6.642;2022-07-23T14:23:02;2.97;;;1.95;;
23181;SDS011;11759;51.282;6.642;2022-07-23T14:25:31;3.40;;;2.15;;
23181;SDS011;11759;51.282;6.642;2022-07-23T14:27:57;7.63;;;2.47;;
23181;SDS011;11759;51.282;6.642;2022-07-23T14:30:25;4.18;;;2.15;;
23181;SDS011;11759;51.282;6.642;2022-07-23T14:32:59;3.72;;;2.63;;
23181;SDS011;11759;51.282;6.642;2022-07-23T14:35:26;7.03;;;2.72;;
23181;SDS011;11759;51.282;6.642;2022-07-23T14:37:53;6.28;;;2.50;;
23181;SDS011;11759;51.282;6.642;2022-07-23T14:40:20;6.60;;;2.63;;
23181;SDS011;11759;51.282;6.642;2022-07-23T14:42:48;3.05;;;2.25;;
23181;SDS011;11759;51.282;6.642;2022-07-23T14:45:15;4.22;;;2.30;;
23181;SDS011;11759;51.282;6.642;2022-07-23T14:47:44;5.00;;;2.55;;
23181;SDS011;11759;51.282;6.642;2022-07-23T14:50:13;7.82;;;2.03;;
23181;SDS011;11759;51.282;6.642;2022-07-23T14:52:40;3.80;;;2.25;;
23181;SDS011;11759;51.282;6.642;2022-07-23T14:55:07;6.32;;;2.10;;
23181;SDS011;11759;51.282;6.642;2022-07-23T14:57:34;3.85;;;2.58;;
23181;SDS011;11759;51.282;6.642;2022-07-23T15:00:00;7.40;;;2.30;;
23181;SDS011;11759;51.282;6.642;2022-07-23T15:02:30;4.00;;;2.13;;
23181;SDS011;11759;51.282;6.642;2022-07-23T15:04:56;4.25;;;2.42;;
23181;SDS011;11759;51.282;6.642;2022-07-23T15:07:27;4.10;;;2.53;;
23181;SDS011;11759;51.282;6.642;2022-07-23T15:09:56;5.68;;;2.33;;
23181;SDS011;11759;51.282;6.642;2022-07-23T15:12:23;5.03;;;2.47;;
23181;SDS011;11759;51.282;6.642;2022-07-23T15:14:52;3.40;;;2.25;;
23181;SDS011;11759;51.282;6.642;2022-07-23T15:17:18;5.68;;;2.53;;
23181;SDS011;11759;51.282;6.642;2022-07-23T15:19:46;3.22;;;2.20;;
23181;SDS011;11759;51.282;6.642;2022-07-23T15:22:15;4.55;;;2.78;;
23181;SDS011;11759;51.282;6.642;2022-07-23T15:24:41;6.78;;;2.92;;
23181;SDS011;11759;51.282;6.642;2022-07-23T15:27:08;2.83;;;2.30;;
23181;SDS011;11759;51.282;6.642;2022-07-23T15:29:36;3.63;;;2.63;;
23181;SDS011;11759;51.282;6.642;2022-07-23T15:32:03;5.13;;;2.67;;
23181;SDS011;11759;51.282;6.642;2022-07-23T15:34:29;4.80;;;2.20;;
23181;SDS011;11759;51.282;6.642;2022-07-23T15:36:59;6.63;;;2.70;;
23181;SDS011;11759;51.282;6.642;2022-07-23T15:39:27;3.00;;;2.22;;
23181;SDS011;11759;51.282;6.642;2022-07-23T15:41:54;3.15;;;2.35;;
23181;SDS011;11759;51.282;6.642;2022-07-23T15:44:23;4.32;;;2.45;;